Portada
METAR-TAF:

METAR-TAF

Aeroports :

Lleida-Alguaire

Lleida, Espanya

latitud: 41-43-40N, longitud: 000-32-09E, altitud: 350 m

Observació

L'informe es va fer fa 22 minuts, a les 17:00 UTC
Vent 11 kt del Est/Nord-Est
Temperatura 21°C
Humitat 64%
Pressió 1016 hPa
Visibilitat 10 km o més
Escasses núvols a una alçada de 3600 ft

METAR: LEDA 191700Z 07011KT 9999 FEW036 21/14 Q1016

Hora: 19:22 (17:22 UTC)


TAF: manca

Observacions i pronòstics meteorològics de més de 4000 aeroports (METAR i TAF).

Les estacions disponibles són els punts grocs i vermells al mapa.

Posi el ratolí al punt desitjat per veure el nom de l'estació.

Feu clic per veure les observacions i els pronòstics meteorològics.

Per canviar el mapa: feu clic els botons verds amb una creu de color negre per apropar; al botó verd amb un guió per allunyar la imatge; o en les fletxes verdes per a mapes adjacents.


METAR-TAF: